^^
Station Historical Data
Daily Summary for March 10, 2018 Units:  English    Metric   Both
« Previous Day
Next Day »
Daily Weekly Monthly Yearly Custom
  High: Low: Average:
Temperature: TemperatureF °F 65.7 °F 74 °F
Dew Point: DewpointF °F 40.8 °F 44.7 °F
Humidity: Humidity% 27% 35%
Wind Speed: WindSpeedMPHmph -999.9mph -12.2mph
Wind Gust: WindSpeedGustMPHmph - -
Wind- -
Pressure: PressureIn in 29.58 in -
Precipitation: 0.00 in    
Historical Graphs
 
 
Tabular Data for March 10, 2018
Time Temperature Dew Point Pressure Wind Wind Speed Wind Gust Humidity Rainfall Rate (Hourly) solar Conditions
TemperatureF °F DewpointF °F PressureIn in Calm     Humidity% HourlyPrecipIn in SoftwareType W/m2 Conditions
08:11 65.7 °F 45.5 °F 29.66 in North -999.9 mph -999.0 mph 48% 0.00 in meteobridge W/m2
08:17 66.7 °F 46.4 °F 29.66 in Calm     48% 0.00 in meteobridge W/m2
08:23 67.3 °F 46.4 °F 29.66 in Calm     47% 0.00 in meteobridge W/m2
08:30 67.5 °F 46.6 °F 29.66 in Calm     47% 0.00 in meteobridge W/m2
08:36 67.5 °F 47.7 °F 29.66 in Calm     49% 0.00 in meteobridge W/m2
08:42 67.6 °F 46.8 °F 29.67 in Calm     47% 0.00 in meteobridge W/m2
08:48 67.8 °F 46.9 °F 29.67 in SSW 2.0 mph 3.0 mph 47% 0.00 in meteobridge W/m2
08:54 68.2 °F 47.7 °F 29.67 in SSW 0.9 mph 4.0 mph 48% 0.00 in meteobridge W/m2
09:00 68.4 °F 47.8 °F 29.67 in SSW 2.0 mph 5.0 mph 48% 0.00 in meteobridge W/m2
09:06 68.5 °F 48.6 °F 29.67 in SSE 2.9 mph 4.0 mph 49% 0.00 in meteobridge W/m2
09:12 69.3 °F 49.3 °F 29.67 in South 6.0 mph 6.0 mph 49% 0.00 in meteobridge W/m2
09:19 69.3 °F 49.3 °F 29.67 in South 6.9 mph 7.0 mph 49% 0.00 in meteobridge W/m2
09:25 69.1 °F 47.5 °F 29.67 in SSW 2.9 mph 4.0 mph 46% 0.00 in meteobridge W/m2
09:31 69.8 °F 48.0 °F 29.67 in South 2.9 mph 5.0 mph 46% 0.00 in meteobridge W/m2
09:37 70.2 °F 46.6 °F 29.68 in SSW 2.9 mph 6.0 mph 43% 0.00 in meteobridge W/m2
09:43 70.2 °F 46.6 °F 29.68 in South 2.9 mph 4.0 mph 43% 0.00 in meteobridge W/m2
09:49 70.7 °F 47.1 °F 29.68 in SSW 0.9 mph 3.0 mph 43% 0.00 in meteobridge W/m2
09:55 71.2 °F 46.9 °F 29.68 in South 0.9 mph 2.0 mph 42% 0.00 in meteobridge W/m2
10:02 71.6 °F 47.3 °F 29.68 in SSE 0.9 mph 5.0 mph 42% 0.00 in meteobridge W/m2
10:08 71.8 °F 46.2 °F 29.68 in South 0.9 mph 2.0 mph 40% 0.00 in meteobridge W/m2
10:14 72.5 °F 46.8 °F 29.68 in South 2.9 mph 4.0 mph 40% 0.00 in meteobridge W/m2
10:20 72.1 °F 47.8 °F 29.67 in SSE 2.9 mph 6.0 mph 42% 0.00 in meteobridge W/m2
10:26 72.0 °F 46.9 °F 29.67 in SW 4.9 mph 5.0 mph 41% 0.00 in meteobridge W/m2
10:32 72.0 °F 45.7 °F 29.67 in SSW 2.9 mph 4.0 mph 39% 0.00 in meteobridge W/m2
10:38 72.7 °F 46.9 °F 29.67 in ESE 6.0 mph 9.0 mph 40% 0.00 in meteobridge W/m2
10:44 72.9 °F 46.4 °F 29.67 in SSE 2.9 mph 3.0 mph 39% 0.00 in meteobridge W/m2
10:50 73.6 °F 47.1 °F 29.67 in SSE 4.9 mph 6.0 mph 39% 0.00 in meteobridge W/m2
10:57 73.4 °F 45.5 °F 29.67 in NW 6.0 mph 6.0 mph 37% 0.00 in meteobridge W/m2
11:03 74.3 °F 46.4 °F 29.67 in SSW 2.9 mph 4.0 mph 37% 0.00 in meteobridge W/m2
11:09 74.5 °F 47.8 °F 29.67 in SSE 4.0 mph 11.0 mph 39% 0.00 in meteobridge W/m2
11:15 74.5 °F 47.1 °F 29.67 in SW 4.9 mph 7.0 mph 38% 0.00 in meteobridge W/m2
11:21 74.8 °F 46.0 °F 29.67 in South 10.1 mph 13.0 mph 36% 0.00 in meteobridge W/m2
11:27 74.7 °F 45.1 °F 29.67 in South 8.9 mph 13.0 mph 35% 0.00 in meteobridge W/m2
11:33 74.1 °F 45.5 °F 29.67 in South 6.0 mph 15.0 mph 36% 0.00 in meteobridge W/m2
11:40 74.7 °F 45.1 °F 29.66 in South 8.1 mph 13.0 mph 35% 0.00 in meteobridge W/m2
11:46 74.7 °F 46.6 °F 29.66 in South 4.0 mph 6.0 mph 37% 0.00 in meteobridge W/m2
11:52 75.2 °F 46.4 °F 29.66 in SSE 2.9 mph 11.0 mph 36% 0.00 in meteobridge W/m2
11:58 75.7 °F 46.9 °F 29.65 in SSW 6.9 mph 14.0 mph 36% 0.00 in meteobridge W/m2
12:04 75.6 °F 47.5 °F 29.65 in SSE 2.9 mph 13.0 mph 37% 0.00 in meteobridge W/m2
12:10 75.4 °F 45.1 °F 29.65 in SSW 8.1 mph 14.0 mph 34% 0.00 in meteobridge W/m2
12:16 75.2 °F 47.1 °F 29.65 in SSE 6.9 mph 13.0 mph 37% 0.00 in meteobridge W/m2
12:23 75.9 °F 47.1 °F 29.65 in SSE 4.9 mph 14.0 mph 36% 0.00 in meteobridge W/m2
12:29 75.6 °F 45.1 °F 29.64 in SSE 8.9 mph 12.0 mph 34% 0.00 in meteobridge W/m2
12:35 75.9 °F 45.5 °F 29.63 in SSE 8.1 mph 13.0 mph 34% 0.00 in meteobridge W/m2
12:41 76.1 °F 45.7 °F 29.63 in South 4.9 mph 16.0 mph 34% 0.00 in meteobridge W/m2
12:47 75.9 °F 46.2 °F 29.63 in SSW 4.0 mph 13.0 mph 35% 0.00 in meteobridge W/m2
12:53 76.1 °F 45.7 °F 29.63 in South 8.1 mph 11.0 mph 34% 0.00 in meteobridge W/m2
13:00 77.2 °F 45.9 °F 29.63 in South 6.0 mph 14.0 mph 33% 0.00 in meteobridge W/m2
13:06 77.4 °F 46.0 °F 29.62 in South 8.9 mph 14.0 mph 33% 0.00 in meteobridge W/m2
13:12 77.5 °F 46.2 °F 29.62 in SSW 8.9 mph 13.0 mph 33% 0.00 in meteobridge W/m2
13:18 77.4 °F 44.4 °F 29.62 in ESE 4.0 mph 9.0 mph 31% 0.00 in meteobridge W/m2
13:24 77.5 °F 46.2 °F 29.62 in SE 4.0 mph 6.0 mph 33% 0.00 in meteobridge W/m2
13:30 77.4 °F 43.5 °F 29.62 in East 6.9 mph 14.0 mph 30% 0.00 in meteobridge W/m2
13:36 76.5 °F 43.5 °F 29.62 in East 2.9 mph 13.0 mph 31% 0.00 in meteobridge W/m2
13:43 77.0 °F 44.1 °F 29.61 in SSW 2.9 mph 11.0 mph 31% 0.00 in meteobridge W/m2
13:49 77.5 °F 46.9 °F 29.61 in SSE 4.9 mph 10.0 mph 34% 0.00 in meteobridge W/m2
13:55 77.9 °F 45.7 °F 29.61 in South 4.9 mph 7.0 mph 32% 0.00 in meteobridge W/m2
14:01 78.1 °F 45.0 °F 29.61 in South 4.9 mph 14.0 mph 31% 0.00 in meteobridge W/m2
14:07 78.1 °F 44.1 °F 29.61 in SSW 13.0 mph 15.0 mph 30% 0.00 in meteobridge W/m2
14:13 78.1 °F 45.0 °F 29.61 in SSE 8.9 mph 10.0 mph 31% 0.00 in meteobridge W/m2
14:20 78.6 °F 43.7 °F 29.61 in SSE 8.9 mph 11.0 mph 29% 0.00 in meteobridge W/m2
14:26 78.4 °F 46.2 °F 29.61 in SSE 11.0 mph 14.0 mph 32% 0.00 in meteobridge W/m2
14:32 77.4 °F 43.5 °F 29.60 in SSE 4.9 mph 11.0 mph 30% 0.00 in meteobridge W/m2
14:38 78.4 °F 43.5 °F 29.60 in South 10.1 mph 14.0 mph 29% 0.00 in meteobridge W/m2
14:44 78.6 °F 44.6 °F 29.60 in South 8.9 mph 19.0 mph 30% 0.00 in meteobridge W/m2
14:50 78.6 °F 42.8 °F 29.60 in SSE 4.9 mph 13.0 mph 28% 0.00 in meteobridge W/m2
14:56 77.9 °F 42.3 °F 29.60 in SSE 4.9 mph 14.0 mph 28% 0.00 in meteobridge W/m2
15:02 78.1 °F 42.3 °F 29.59 in South 4.9 mph 15.0 mph 28% 0.00 in meteobridge W/m2
15:09 77.4 °F 40.8 °F 29.59 in SW 11.0 mph 13.0 mph 27% 0.00 in meteobridge W/m2
15:15 77.5 °F 41.0 °F 29.59 in South 11.0 mph 15.0 mph 27% 0.00 in meteobridge W/m2
15:21 77.9 °F 43.2 °F 29.59 in South 6.9 mph 10.0 mph 29% 0.00 in meteobridge W/m2
15:27 79.2 °F 43.2 °F 29.59 in South 12.1 mph 16.0 mph 28% 0.00 in meteobridge W/m2
15:33 78.3 °F 43.3 °F 29.59 in SSE 10.1 mph 18.0 mph 29% 0.00 in meteobridge W/m2
15:39 78.3 °F 41.5 °F 29.59 in SSW 4.9 mph 11.0 mph 27% 0.00 in meteobridge W/m2
15:45 78.1 °F 44.1 °F 29.59 in SE 6.9 mph 15.0 mph 30% 0.00 in meteobridge W/m2
15:51 78.3 °F 41.5 °F 29.59 in South 8.9 mph 15.0 mph 27% 0.00 in meteobridge W/m2
15:57 78.3 °F 42.4 °F 29.59 in South 8.9 mph 14.0 mph 28% 0.00 in meteobridge W/m2
16:03 78.1 °F 44.1 °F 29.59 in SSE 6.0 mph 12.0 mph 30% 0.00 in meteobridge W/m2
16:09 78.3 °F 43.3 °F 29.59 in SSE 2.9 mph 13.0 mph 29% 0.00 in meteobridge W/m2
16:15 78.6 °F 41.9 °F 29.59 in SSW 6.0 mph 8.0 mph 27% 0.00 in meteobridge W/m2
16:21 78.3 °F 44.2 °F 29.59 in SSE 10.1 mph 12.0 mph 30% 0.00 in meteobridge W/m2
16:27 78.4 °F 41.7 °F 29.59 in South 6.0 mph 14.0 mph 27% 0.00 in meteobridge W/m2
16:33 78.1 °F 44.1 °F 29.59 in SSE 8.9 mph 13.0 mph 30% 0.00 in meteobridge W/m2
16:39 77.7 °F 43.9 °F 29.59 in SSE 13.0 mph 13.0 mph 30% 0.00 in meteobridge W/m2
16:45 78.1 °F 41.4 °F 29.59 in SSE 2.9 mph 10.0 mph 27% 0.00 in meteobridge W/m2
16:51 78.6 °F 43.7 °F 29.58 in SSE 6.9 mph 16.0 mph 29% 0.00 in meteobridge W/m2
16:58 77.2 °F 43.3 °F 29.58 in SSE 6.0 mph 10.0 mph 30% 0.00 in meteobridge W/m2
17:04 77.4 °F 44.4 °F 29.59 in South 10.1 mph 14.0 mph 31% 0.00 in meteobridge W/m2
17:10 77.0 °F 45.0 °F 29.58 in South 4.9 mph 6.0 mph 32% 0.00 in meteobridge W/m2
17:16 76.8 °F 43.9 °F 29.59 in South 10.1 mph 13.0 mph 31% 0.00 in meteobridge W/m2
17:22 74.7 °F 44.4 °F 29.59 in South 8.9 mph 12.0 mph 34% 0.00 in meteobridge W/m2
17:28 74.8 °F 44.6 °F 29.59 in SSE 4.0 mph 11.0 mph 34% 0.00 in meteobridge W/m2
17:34 75.0 °F 43.9 °F 29.59 in South 6.9 mph 13.0 mph 33% 0.00 in meteobridge W/m2
17:40 75.0 °F 43.9 °F 29.59 in SE 4.0 mph 13.0 mph 33% 0.00 in meteobridge W/m2
17:46 75.2 °F 45.7 °F 29.59 in South 6.0 mph 10.0 mph 35% 0.00 in meteobridge W/m2
17:52 75.2 °F 44.1 °F 29.59 in SSW 6.9 mph 9.0 mph 33% 0.00 in meteobridge W/m2
17:58 75.4 °F 45.1 °F 29.59 in SSE 6.0 mph 13.0 mph 34% 0.00 in meteobridge W/m2
18:04 75.4 °F 43.5 °F 29.59 in South 8.9 mph 15.0 mph 32% 0.00 in meteobridge W/m2
18:10 75.0 °F 44.8 °F 29.59 in SSE 2.9 mph 12.0 mph 34% 0.00 in meteobridge W/m2
18:16 74.5 °F 44.2 °F 29.60 in South 12.1 mph 14.0 mph 34% 0.00 in meteobridge W/m2
18:23 73.8 °F 43.7 °F 29.60 in South 6.0 mph 12.0 mph 34% 0.00 in meteobridge W/m2
18:29 73.6 °F 43.5 °F 29.60 in SSE 6.0 mph 10.0 mph 34% 0.00 in meteobridge W/m2
18:35 73.0 °F 43.0 °F 29.60 in South 6.0 mph 11.0 mph 34% 0.00 in meteobridge W/m2
18:41 72.7 °F 43.5 °F 29.61 in South 17.0 mph 17.0 mph 35% 0.00 in meteobridge W/m2
18:45 72.3 °F 43.2 °F 29.60 in South 8.9 mph 11.0 mph 35% 0.00 in meteobridge W/m2
18:51 72.0 °F 43.5 °F 29.61 in South 13.0 mph 14.0 mph 36% 0.00 in meteobridge W/m2
18:57 71.1 °F 44.2 °F 29.61 in South 6.0 mph 13.0 mph 38% 0.00 in meteobridge W/m2
19:03 71.1 °F 44.2 °F 29.61 in SSE 8.9 mph 9.0 mph 38% 0.00 in meteobridge W/m2
19:09 71.1 °F 44.2 °F 29.61 in SSE 8.9 mph -999.0 mph 38% 0.00 in meteobridge W/m2
19:16 71.1 °F 44.2 °F 29.62 in North -999.9 mph -999.0 mph 38% 0.00 in meteobridge W/m2
Regenstein, Windhoek, Namibia
Compliments of Weather Underground - 2.5 mb